sensor_id;sensor_type;location;lat;lon;timestamp;P1;durP1;ratioP1;P2;durP2;ratioP2
39888;SDS011;25563;50.844;4.308;2023-06-26T00:01:25;5.03;;;4.68;;
39888;SDS011;25563;50.844;4.308;2023-06-26T00:03:54;4.50;;;4.20;;
39888;SDS011;25563;50.844;4.308;2023-06-26T00:06:20;7.88;;;3.97;;
39888;SDS011;25563;50.844;4.308;2023-06-26T00:08:49;6.17;;;4.43;;
39888;SDS011;25563;50.844;4.308;2023-06-26T00:11:14;8.73;;;3.80;;
39888;SDS011;25563;50.844;4.308;2023-06-26T00:13:40;5.78;;;3.38;;
39888;SDS011;25563;50.844;4.308;2023-06-26T00:16:06;12.82;;;3.63;;
39888;SDS011;25563;50.844;4.308;2023-06-26T00:18:32;4.35;;;3.25;;
39888;SDS011;25563;50.844;4.308;2023-06-26T00:20:59;3.05;;;2.80;;
39888;SDS011;25563;50.844;4.308;2023-06-26T00:23:25;5.03;;;3.05;;
39888;SDS011;25563;50.844;4.308;2023-06-26T00:25:52;3.80;;;2.78;;
39888;SDS011;25563;50.844;4.308;2023-06-26T00:28:18;3.97;;;2.65;;
39888;SDS011;25563;50.844;4.308;2023-06-26T00:30:44;5.80;;;2.78;;
39888;SDS011;25563;50.844;4.308;2023-06-26T00:33:09;4.78;;;3.25;;
39888;SDS011;25563;50.844;4.308;2023-06-26T00:35:35;3.33;;;3.03;;
39888;SDS011;25563;50.844;4.308;2023-06-26T00:38:01;6.65;;;3.38;;
39888;SDS011;25563;50.844;4.308;2023-06-26T00:40:27;3.30;;;3.05;;
39888;SDS011;25563;50.844;4.308;2023-06-26T00:42:53;3.50;;;2.83;;
39888;SDS011;25563;50.844;4.308;2023-06-26T00:45:20;3.97;;;2.80;;
39888;SDS011;25563;50.844;4.308;2023-06-26T00:47:46;3.58;;;3.28;;
39888;SDS011;25563;50.844;4.308;2023-06-26T00:50:12;5.63;;;3.42;;
39888;SDS011;25563;50.844;4.308;2023-06-26T00:52:40;4.15;;;3.10;;
39888;SDS011;25563;50.844;4.308;2023-06-26T00:55:06;5.38;;;2.97;;
39888;SDS011;25563;50.844;4.308;2023-06-26T00:57:32;8.48;;;3.22;;
39888;SDS011;25563;50.844;4.308;2023-06-26T00:59:58;3.05;;;2.70;;
39888;SDS011;25563;50.844;4.308;2023-06-26T01:02:25;4.72;;;3.00;;
39888;SDS011;25563;50.844;4.308;2023-06-26T01:04:58;6.15;;;3.40;;
39888;SDS011;25563;50.844;4.308;2023-06-26T01:07:28;5.82;;;3.00;;
39888;SDS011;25563;50.844;4.308;2023-06-26T01:09:57;3.25;;;2.67;;
39888;SDS011;25563;50.844;4.308;2023-06-26T01:12:23;6.10;;;3.15;;
39888;SDS011;25563;50.844;4.308;2023-06-26T01:14:49;4.88;;;3.03;;
39888;SDS011;25563;50.844;4.308;2023-06-26T01:17:15;12.60;;;2.95;;
39888;SDS011;25563;50.844;4.308;2023-06-26T01:19:41;3.10;;;2.78;;
39888;SDS011;25563;50.844;4.308;2023-06-26T01:25:12;6.22;;;2.65;;
39888;SDS011;25563;50.844;4.308;2023-06-26T01:28:03;3.35;;;2.63;;
39888;SDS011;25563;50.844;4.308;2023-06-26T01:30:34;5.53;;;2.60;;
39888;SDS011;25563;50.844;4.308;2023-06-26T01:33:03;3.45;;;2.72;;
39888;SDS011;25563;50.844;4.308;2023-06-26T01:35:29;3.53;;;3.17;;
39888;SDS011;25563;50.844;4.308;2023-06-26T01:38:11;3.63;;;2.67;;
39888;SDS011;25563;50.844;4.308;2023-06-26T01:40:38;5.75;;;3.47;;
39888;SDS011;25563;50.844;4.308;2023-06-26T01:43:04;5.13;;;3.17;;
39888;SDS011;25563;50.844;4.308;2023-06-26T01:45:31;3.08;;;2.60;;
39888;SDS011;25563;50.844;4.308;2023-06-26T01:47:58;3.67;;;3.00;;
39888;SDS011;25563;50.844;4.308;2023-06-26T01:50:28;7.35;;;2.88;;
39888;SDS011;25563;50.844;4.308;2023-06-26T01:53:01;6.40;;;2.83;;
39888;SDS011;25563;50.844;4.308;2023-06-26T01:58:12;4.57;;;2.15;;
39888;SDS011;25563;50.844;4.308;2023-06-26T02:00:39;6.95;;;3.53;;
39888;SDS011;25563;50.844;4.308;2023-06-26T02:03:06;12.95;;;2.95;;
39888;SDS011;25563;50.844;4.308;2023-06-26T02:05:32;4.13;;;2.67;;
39888;SDS011;25563;50.844;4.308;2023-06-26T02:07:58;2.63;;;2.42;;
39888;SDS011;25563;50.844;4.308;2023-06-26T02:10:26;5.32;;;2.90;;
39888;SDS011;25563;50.844;4.308;2023-06-26T02:12:52;10.77;;;3.08;;
39888;SDS011;25563;50.844;4.308;2023-06-26T02:15:17;5.65;;;3.10;;
39888;SDS011;25563;50.844;4.308;2023-06-26T02:17:43;4.93;;;3.00;;
39888;SDS011;25563;50.844;4.308;2023-06-26T02:20:13;6.15;;;3.50;;
39888;SDS011;25563;50.844;4.308;2023-06-26T02:22:42;4.85;;;3.28;;
39888;SDS011;25563;50.844;4.308;2023-06-26T02:25:08;3.10;;;2.72;;
39888;SDS011;25563;50.844;4.308;2023-06-26T02:27:35;6.88;;;3.28;;
39888;SDS011;25563;50.844;4.308;2023-06-26T02:30:00;5.20;;;3.38;;
39888;SDS011;25563;50.844;4.308;2023-06-26T02:32:26;6.88;;;3.78;;
39888;SDS011;25563;50.844;4.308;2023-06-26T02:34:52;3.40;;;3.10;;
39888;SDS011;25563;50.844;4.308;2023-06-26T02:37:19;4.20;;;2.78;;
39888;SDS011;25563;50.844;4.308;2023-06-26T02:39:44;5.95;;;3.17;;
39888;SDS011;25563;50.844;4.308;2023-06-26T02:42:11;3.70;;;2.70;;
39888;SDS011;25563;50.844;4.308;2023-06-26T02:44:38;7.63;;;3.58;;
39888;SDS011;25563;50.844;4.308;2023-06-26T02:47:04;5.13;;;3.05;;
39888;SDS011;25563;50.844;4.308;2023-06-26T02:49:30;6.68;;;2.70;;
39888;SDS011;25563;50.844;4.308;2023-06-26T02:51:56;10.13;;;3.15;;
39888;SDS011;25563;50.844;4.308;2023-06-26T02:54:21;6.53;;;3.78;;
39888;SDS011;25563;50.844;4.308;2023-06-26T02:56:47;7.65;;;3.97;;
39888;SDS011;25563;50.844;4.308;2023-06-26T02:59:13;6.05;;;3.33;;
39888;SDS011;25563;50.844;4.308;2023-06-26T03:01:39;5.43;;;3.33;;
39888;SDS011;25563;50.844;4.308;2023-06-26T03:04:05;5.30;;;3.28;;
39888;SDS011;25563;50.844;4.308;2023-06-26T03:06:30;4.22;;;2.90;;
39888;SDS011;25563;50.844;4.308;2023-06-26T03:08:56;6.85;;;3.70;;
39888;SDS011;25563;50.844;4.308;2023-06-26T03:11:22;7.25;;;3.75;;
39888;SDS011;25563;50.844;4.308;2023-06-26T03:13:47;9.70;;;4.38;;
39888;SDS011;25563;50.844;4.308;2023-06-26T03:16:13;9.40;;;3.60;;
39888;SDS011;25563;50.844;4.308;2023-06-26T03:18:39;11.20;;;4.00;;
39888;SDS011;25563;50.844;4.308;2023-06-26T03:21:05;8.60;;;3.90;;
39888;SDS011;25563;50.844;4.308;2023-06-26T03:23:31;10.85;;;4.28;;
39888;SDS011;25563;50.844;4.308;2023-06-26T03:25:57;9.07;;;4.03;;
39888;SDS011;25563;50.844;4.308;2023-06-26T03:28:23;8.35;;;3.75;;
39888;SDS011;25563;50.844;4.308;2023-06-26T03:30:48;9.75;;;4.53;;
39888;SDS011;25563;50.844;4.308;2023-06-26T03:33:14;10.50;;;4.50;;
39888;SDS011;25563;50.844;4.308;2023-06-26T03:35:40;8.20;;;3.92;;
39888;SDS011;25563;50.844;4.308;2023-06-26T03:38:05;11.13;;;4.40;;
39888;SDS011;25563;50.844;4.308;2023-06-26T03:40:31;7.30;;;4.32;;
39888;SDS011;25563;50.844;4.308;2023-06-26T03:42:57;8.52;;;4.28;;
39888;SDS011;25563;50.844;4.308;2023-06-26T03:45:23;10.23;;;4.28;;
39888;SDS011;25563;50.844;4.308;2023-06-26T03:47:48;12.77;;;4.85;;
39888;SDS011;25563;50.844;4.308;2023-06-26T03:50:15;12.23;;;4.45;;
39888;SDS011;25563;50.844;4.308;2023-06-26T03:52:41;11.90;;;4.65;;
39888;SDS011;25563;50.844;4.308;2023-06-26T03:55:07;13.45;;;4.35;;
39888;SDS011;25563;50.844;4.308;2023-06-26T03:57:33;10.25;;;4.43;;
39888;SDS011;25563;50.844;4.308;2023-06-26T03:59:59;12.10;;;5.18;;
39888;SDS011;25563;50.844;4.308;2023-06-26T04:02:26;6.80;;;3.70;;
39888;SDS011;25563;50.844;4.308;2023-06-26T04:04:51;10.68;;;4.32;;
39888;SDS011;25563;50.844;4.308;2023-06-26T04:07:18;12.65;;;4.85;;
39888;SDS011;25563;50.844;4.308;2023-06-26T04:09:44;10.82;;;3.90;;
39888;SDS011;25563;50.844;4.308;2023-06-26T04:12:10;9.75;;;4.32;;
39888;SDS011;25563;50.844;4.308;2023-06-26T04:14:36;13.48;;;4.30;;
39888;SDS011;25563;50.844;4.308;2023-06-26T04:17:02;12.27;;;4.60;;
39888;SDS011;25563;50.844;4.308;2023-06-26T04:19:28;12.63;;;4.68;;
39888;SDS011;25563;50.844;4.308;2023-06-26T04:21:55;12.57;;;4.63;;
39888;SDS011;25563;50.844;4.308;2023-06-26T04:24:21;12.60;;;4.53;;
39888;SDS011;25563;50.844;4.308;2023-06-26T04:26:46;8.85;;;3.47;;
39888;SDS011;25563;50.844;4.308;2023-06-26T04:29:12;18.67;;;4.88;;
39888;SDS011;25563;50.844;4.308;2023-06-26T04:31:38;12.82;;;4.30;;
39888;SDS011;25563;50.844;4.308;2023-06-26T04:34:05;15.90;;;4.15;;
39888;SDS011;25563;50.844;4.308;2023-06-26T04:36:30;11.40;;;4.47;;
39888;SDS011;25563;50.844;4.308;2023-06-26T04:38:58;13.02;;;4.05;;
39888;SDS011;25563;50.844;4.308;2023-06-26T04:41:24;16.77;;;5.40;;
39888;SDS011;25563;50.844;4.308;2023-06-26T04:43:50;16.95;;;4.47;;
39888;SDS011;25563;50.844;4.308;2023-06-26T04:46:16;15.30;;;4.30;;
39888;SDS011;25563;50.844;4.308;2023-06-26T04:48:42;16.80;;;4.30;;
39888;SDS011;25563;50.844;4.308;2023-06-26T04:51:09;15.68;;;4.43;;
39888;SDS011;25563;50.844;4.308;2023-06-26T04:53:36;9.40;;;3.70;;
39888;SDS011;25563;50.844;4.308;2023-06-26T04:56:02;14.45;;;4.10;;
39888;SDS011;25563;50.844;4.308;2023-06-26T04:58:28;14.68;;;4.68;;
39888;SDS011;25563;50.844;4.308;2023-06-26T05:00:54;14.20;;;4.28;;
39888;SDS011;25563;50.844;4.308;2023-06-26T05:03:20;12.15;;;4.90;;
39888;SDS011;25563;50.844;4.308;2023-06-26T05:05:46;14.25;;;4.38;;
39888;SDS011;25563;50.844;4.308;2023-06-26T05:08:13;12.60;;;3.97;;
39888;SDS011;25563;50.844;4.308;2023-06-26T05:10:40;13.90;;;3.80;;
39888;SDS011;25563;50.844;4.308;2023-06-26T05:13:06;11.52;;;3.67;;
39888;SDS011;25563;50.844;4.308;2023-06-26T05:15:31;7.63;;;3.42;;
39888;SDS011;25563;50.844;4.308;2023-06-26T05:17:57;11.98;;;4.05;;
39888;SDS011;25563;50.844;4.308;2023-06-26T05:20:23;9.25;;;3.15;;
39888;SDS011;25563;50.844;4.308;2023-06-26T05:22:49;8.02;;;3.47;;
39888;SDS011;25563;50.844;4.308;2023-06-26T05:25:15;13.15;;;3.90;;
39888;SDS011;25563;50.844;4.308;2023-06-26T05:27:43;15.32;;;3.65;;
39888;SDS011;25563;50.844;4.308;2023-06-26T05:30:09;15.95;;;3.15;;
39888;SDS011;25563;50.844;4.308;2023-06-26T05:32:36;8.93;;;3.28;;
39888;SDS011;25563;50.844;4.308;2023-06-26T05:35:04;15.90;;;3.33;;
39888;SDS011;25563;50.844;4.308;2023-06-26T05:37:31;14.80;;;3.20;;
39888;SDS011;25563;50.844;4.308;2023-06-26T05:39:58;12.25;;;3.35;;
39888;SDS011;25563;50.844;4.308;2023-06-26T05:42:24;9.65;;;3.03;;
39888;SDS011;25563;50.844;4.308;2023-06-26T05:44:51;14.65;;;2.80;;
39888;SDS011;25563;50.844;4.308;2023-06-26T05:47:16;10.52;;;2.60;;
39888;SDS011;25563;50.844;4.308;2023-06-26T05:49:42;7.82;;;3.17;;
39888;SDS011;25563;50.844;4.308;2023-06-26T05:52:08;15.63;;;3.60;;
39888;SDS011;25563;50.844;4.308;2023-06-26T05:54:34;14.95;;;3.33;;
39888;SDS011;25563;50.844;4.308;2023-06-26T05:57:01;13.73;;;3.00;;
39888;SDS011;25563;50.844;4.308;2023-06-26T05:59:28;6.13;;;2.67;;
39888;SDS011;25563;50.844;4.308;2023-06-26T06:01:57;12.35;;;3.08;;
39888;SDS011;25563;50.844;4.308;2023-06-26T06:04:23;9.95;;;2.35;;
39888;SDS011;25563;50.844;4.308;2023-06-26T06:06:49;13.38;;;3.03;;
39888;SDS011;25563;50.844;4.308;2023-06-26T06:09:14;6.97;;;2.25;;
39888;SDS011;25563;50.844;4.308;2023-06-26T06:11:40;12.45;;;2.55;;
39888;SDS011;25563;50.844;4.308;2023-06-26T06:14:06;9.32;;;2.50;;
39888;SDS011;25563;50.844;4.308;2023-06-26T06:16:32;9.07;;;2.40;;
39888;SDS011;25563;50.844;4.308;2023-06-26T06:18:58;8.88;;;2.47;;
39888;SDS011;25563;50.844;4.308;2023-06-26T06:21:23;8.60;;;2.10;;
39888;SDS011;25563;50.844;4.308;2023-06-26T06:23:49;6.30;;;2.88;;
39888;SDS011;25563;50.844;4.308;2023-06-26T06:26:15;12.57;;;2.55;;
39888;SDS011;25563;50.844;4.308;2023-06-26T06:28:41;13.05;;;2.53;;
39888;SDS011;25563;50.844;4.308;2023-06-26T06:31:06;9.13;;;2.42;;
39888;SDS011;25563;50.844;4.308;2023-06-26T06:33:32;8.13;;;1.77;;
39888;SDS011;25563;50.844;4.308;2023-06-26T06:35:59;5.90;;;1.65;;
39888;SDS011;25563;50.844;4.308;2023-06-26T06:38:25;7.78;;;2.22;;
39888;SDS011;25563;50.844;4.308;2023-06-26T06:40:53;4.47;;;1.40;;
39888;SDS011;25563;50.844;4.308;2023-06-26T06:43:20;6.85;;;1.67;;
39888;SDS011;25563;50.844;4.308;2023-06-26T06:45:45;13.35;;;2.17;;
39888;SDS011;25563;50.844;4.308;2023-06-26T06:48:12;9.10;;;2.20;;
39888;SDS011;25563;50.844;4.308;2023-06-26T06:50:38;8.30;;;1.77;;
39888;SDS011;25563;50.844;4.308;2023-06-26T06:53:04;7.60;;;2.00;;
39888;SDS011;25563;50.844;4.308;2023-06-26T06:55:29;5.63;;;2.13;;
39888;SDS011;25563;50.844;4.308;2023-06-26T06:57:55;10.73;;;1.85;;
39888;SDS011;25563;50.844;4.308;2023-06-26T07:00:21;9.15;;;1.98;;
39888;SDS011;25563;50.844;4.308;2023-06-26T07:02:47;9.30;;;1.90;;
39888;SDS011;25563;50.844;4.308;2023-06-26T07:05:12;5.13;;;1.73;;
39888;SDS011;25563;50.844;4.308;2023-06-26T07:07:38;8.02;;;1.75;;
39888;SDS011;25563;50.844;4.308;2023-06-26T07:10:06;8.32;;;2.30;;
39888;SDS011;25563;50.844;4.308;2023-06-26T07:12:33;4.53;;;1.60;;
39888;SDS011;25563;50.844;4.308;2023-06-26T07:15:03;4.38;;;1.70;;
39888;SDS011;25563;50.844;4.308;2023-06-26T07:17:33;7.78;;;1.63;;
39888;SDS011;25563;50.844;4.308;2023-06-26T07:20:00;8.30;;;1.60;;
39888;SDS011;25563;50.844;4.308;2023-06-26T07:22:31;10.52;;;1.67;;
39888;SDS011;25563;50.844;4.308;2023-06-26T07:24:57;9.00;;;2.78;;
39888;SDS011;25563;50.844;4.308;2023-06-26T07:27:22;8.15;;;1.83;;
39888;SDS011;25563;50.844;4.308;2023-06-26T07:29:48;5.82;;;1.30;;
39888;SDS011;25563;50.844;4.308;2023-06-26T07:32:14;3.33;;;1.63;;
39888;SDS011;25563;50.844;4.308;2023-06-26T07:34:39;4.78;;;1.98;;
39888;SDS011;25563;50.844;4.308;2023-06-26T07:37:06;6.72;;;2.60;;
39888;SDS011;25563;50.844;4.308;2023-06-26T07:39:32;5.93;;;1.70;;
39888;SDS011;25563;50.844;4.308;2023-06-26T07:41:58;7.72;;;1.55;;
39888;SDS011;25563;50.844;4.308;2023-06-26T07:44:24;4.38;;;1.40;;
39888;SDS011;25563;50.844;4.308;2023-06-26T07:46:50;5.10;;;1.48;;
39888;SDS011;25563;50.844;4.308;2023-06-26T07:49:16;3.70;;;1.48;;
39888;SDS011;25563;50.844;4.308;2023-06-26T07:51:42;5.80;;;1.98;;
39888;SDS011;25563;50.844;4.308;2023-06-26T07:54:07;6.30;;;1.67;;
39888;SDS011;25563;50.844;4.308;2023-06-26T08:01:53;7.13;;;2.20;;
39888;SDS011;25563;50.844;4.308;2023-06-26T08:04:19;4.70;;;1.55;;
39888;SDS011;25563;50.844;4.308;2023-06-26T08:06:50;6.80;;;1.60;;
39888;SDS011;25563;50.844;4.308;2023-06-26T08:09:20;5.45;;;1.80;;
39888;SDS011;25563;50.844;4.308;2023-06-26T08:11:47;13.20;;;1.83;;
39888;SDS011;25563;50.844;4.308;2023-06-26T08:14:13;7.30;;;1.40;;
39888;SDS011;25563;50.844;4.308;2023-06-26T08:16:42;8.88;;;1.20;;
39888;SDS011;25563;50.844;4.308;2023-06-26T08:19:15;5.15;;;1.60;;
39888;SDS011;25563;50.844;4.308;2023-06-26T08:21:42;2.35;;;1.10;;
39888;SDS011;25563;50.844;4.308;2023-06-26T08:24:09;2.38;;;1.20;;
39888;SDS011;25563;50.844;4.308;2023-06-26T08:26:35;8.90;;;1.58;;
39888;SDS011;25563;50.844;4.308;2023-06-26T08:29:02;4.60;;;1.98;;
39888;SDS011;25563;50.844;4.308;2023-06-26T08:31:36;5.22;;;1.40;;
39888;SDS011;25563;50.844;4.308;2023-06-26T08:34:03;4.03;;;1.23;;
39888;SDS011;25563;50.844;4.308;2023-06-26T08:36:29;6.03;;;1.33;;
39888;SDS011;25563;50.844;4.308;2023-06-26T08:38:55;2.70;;;1.00;;
39888;SDS011;25563;50.844;4.308;2023-06-26T08:41:21;4.47;;;1.33;;
39888;SDS011;25563;50.844;4.308;2023-06-26T08:43:47;4.07;;;1.33;;
39888;SDS011;25563;50.844;4.308;2023-06-26T08:46:15;4.82;;;1.00;;
39888;SDS011;25563;50.844;4.308;2023-06-26T08:48:41;3.67;;;1.25;;
39888;SDS011;25563;50.844;4.308;2023-06-26T08:51:13;5.05;;;1.58;;
39888;SDS011;25563;50.844;4.308;2023-06-26T08:53:58;6.93;;;1.50;;
39888;SDS011;25563;50.844;4.308;2023-06-26T08:56:29;5.65;;;1.52;;
39888;SDS011;25563;50.844;4.308;2023-06-26T08:58:59;3.78;;;1.27;;
39888;SDS011;25563;50.844;4.308;2023-06-26T09:01:26;3.28;;;1.15;;
39888;SDS011;25563;50.844;4.308;2023-06-26T09:03:52;6.00;;;1.20;;
39888;SDS011;25563;50.844;4.308;2023-06-26T09:06:18;3.95;;;1.52;;
39888;SDS011;25563;50.844;4.308;2023-06-26T09:08:44;11.30;;;1.58;;
39888;SDS011;25563;50.844;4.308;2023-06-26T09:11:10;6.40;;;1.20;;
39888;SDS011;25563;50.844;4.308;2023-06-26T09:13:36;11.15;;;1.23;;
39888;SDS011;25563;50.844;4.308;2023-06-26T09:16:06;5.00;;;1.25;;
39888;SDS011;25563;50.844;4.308;2023-06-26T09:18:33;5.40;;;1.42;;
39888;SDS011;25563;50.844;4.308;2023-06-26T09:20:59;7.55;;;1.90;;
39888;SDS011;25563;50.844;4.308;2023-06-26T09:23:26;5.05;;;1.35;;
39888;SDS011;25563;50.844;4.308;2023-06-26T09:25:52;4.40;;;1.00;;
39888;SDS011;25563;50.844;4.308;2023-06-26T09:28:19;3.65;;;1.60;;
39888;SDS011;25563;50.844;4.308;2023-06-26T09:30:45;9.20;;;1.20;;
39888;SDS011;25563;50.844;4.308;2023-06-26T09:33:16;3.58;;;1.45;;
39888;SDS011;25563;50.844;4.308;2023-06-26T09:35:45;2.10;;;0.90;;
39888;SDS011;25563;50.844;4.308;2023-06-26T09:38:12;2.10;;;0.90;;
39888;SDS011;25563;50.844;4.308;2023-06-26T09:40:39;3.80;;;1.17;;
39888;SDS011;25563;50.844;4.308;2023-06-26T09:43:05;3.30;;;1.45;;
39888;SDS011;25563;50.844;4.308;2023-06-26T09:45:34;5.22;;;1.15;;
39888;SDS011;25563;50.844;4.308;2023-06-26T09:48:03;7.75;;;1.40;;
39888;SDS011;25563;50.844;4.308;2023-06-26T09:50:30;4.35;;;1.50;;
39888;SDS011;25563;50.844;4.308;2023-06-26T09:53:06;2.70;;;1.38;;
39888;SDS011;25563;50.844;4.308;2023-06-26T09:55:36;3.65;;;1.30;;
39888;SDS011;25563;50.844;4.308;2023-06-26T09:58:02;2.22;;;1.10;;
39888;SDS011;25563;50.844;4.308;2023-06-26T10:00:32;5.32;;;1.10;;
39888;SDS011;25563;50.844;4.308;2023-06-26T10:03:00;13.68;;;1.55;;
39888;SDS011;25563;50.844;4.308;2023-06-26T10:05:26;1.50;;;0.77;;
39888;SDS011;25563;50.844;4.308;2023-06-26T10:07:53;2.00;;;0.73;;
39888;SDS011;25563;50.844;4.308;2023-06-26T10:10:21;3.08;;;0.85;;
39888;SDS011;25563;50.844;4.308;2023-06-26T10:12:50;9.43;;;1.30;;
39888;SDS011;25563;50.844;4.308;2023-06-26T10:15:26;2.65;;;0.80;;
39888;SDS011;25563;50.844;4.308;2023-06-26T10:18:05;2.85;;;1.30;;
39888;SDS011;25563;50.844;4.308;2023-06-26T10:20:33;3.53;;;1.38;;
39888;SDS011;25563;50.844;4.308;2023-06-26T10:23:00;3.80;;;1.10;;
39888;SDS011;25563;50.844;4.308;2023-06-26T10:25:30;4.82;;;1.30;;
39888;SDS011;25563;50.844;4.308;2023-06-26T10:27:58;5.15;;;1.08;;
39888;SDS011;25563;50.844;4.308;2023-06-26T10:30:29;4.20;;;1.15;;
39888;SDS011;25563;50.844;4.308;2023-06-26T10:33:08;4.35;;;1.00;;
39888;SDS011;25563;50.844;4.308;2023-06-26T10:35:40;5.10;;;1.25;;
39888;SDS011;25563;50.844;4.308;2023-06-26T10:38:10;4.28;;;1.13;;
39888;SDS011;25563;50.844;4.308;2023-06-26T10:40:43;13.07;;;1.45;;
39888;SDS011;25563;50.844;4.308;2023-06-26T10:43:11;3.22;;;1.30;;
39888;SDS011;25563;50.844;4.308;2023-06-26T10:45:58;3.75;;;1.55;;
39888;SDS011;25563;50.844;4.308;2023-06-26T10:48:24;7.65;;;1.13;;
39888;SDS011;25563;50.844;4.308;2023-06-26T10:50:54;3.15;;;1.20;;
39888;SDS011;25563;50.844;4.308;2023-06-26T10:58:30;5.65;;;1.65;;
39888;SDS011;25563;50.844;4.308;2023-06-26T11:03:41;27.23;;;2.25;;
39888;SDS011;25563;50.844;4.308;2023-06-26T11:06:09;4.60;;;1.30;;
39888;SDS011;25563;50.844;4.308;2023-06-26T11:08:48;16.60;;;2.38;;
39888;SDS011;25563;50.844;4.308;2023-06-26T11:11:16;12.32;;;2.00;;
39888;SDS011;25563;50.844;4.308;2023-06-26T11:13:44;4.53;;;1.70;;
39888;SDS011;25563;50.844;4.308;2023-06-26T11:16:14;2.47;;;1.17;;
39888;SDS011;25563;50.844;4.308;2023-06-26T11:18:40;6.57;;;1.80;;
39888;SDS011;25563;50.844;4.308;2023-06-26T11:21:11;5.40;;;1.50;;
39888;SDS011;25563;50.844;4.308;2023-06-26T11:23:40;7.30;;;2.20;;
39888;SDS011;25563;50.844;4.308;2023-06-26T11:26:12;3.15;;;1.40;;
39888;SDS011;25563;50.844;4.308;2023-06-26T11:28:48;4.13;;;1.30;;
39888;SDS011;25563;50.844;4.308;2023-06-26T11:31:30;2.38;;;1.20;;
39888;SDS011;25563;50.844;4.308;2023-06-26T11:34:02;5.65;;;1.27;;
39888;SDS011;25563;50.844;4.308;2023-06-26T11:36:30;2.88;;;0.98;;
39888;SDS011;25563;50.844;4.308;2023-06-26T11:39:00;5.70;;;1.30;;
39888;SDS011;25563;50.844;4.308;2023-06-26T11:41:31;2.95;;;1.33;;
39888;SDS011;25563;50.844;4.308;2023-06-26T11:44:04;4.45;;;1.50;;
39888;SDS011;25563;50.844;4.308;2023-06-26T11:46:31;7.00;;;1.33;;
39888;SDS011;25563;50.844;4.308;2023-06-26T11:48:59;5.03;;;1.73;;
39888;SDS011;25563;50.844;4.308;2023-06-26T11:51:28;7.13;;;1.20;;
39888;SDS011;25563;50.844;4.308;2023-06-26T11:53:53;2.55;;;1.25;;
39888;SDS011;25563;50.844;4.308;2023-06-26T11:56:20;2.45;;;1.17;;
39888;SDS011;25563;50.844;4.308;2023-06-26T11:58:58;5.45;;;1.33;;
39888;SDS011;25563;50.844;4.308;2023-06-26T12:01:39;4.60;;;1.00;;
39888;SDS011;25563;50.844;4.308;2023-06-26T12:04:10;5.07;;;1.00;;
39888;SDS011;25563;50.844;4.308;2023-06-26T12:06:38;4.35;;;0.90;;
39888;SDS011;25563;50.844;4.308;2023-06-26T12:11:34;1.95;;;1.00;;
39888;SDS011;25563;50.844;4.308;2023-06-26T12:14:01;2.58;;;0.90;;
39888;SDS011;25563;50.844;4.308;2023-06-26T12:16:29;6.13;;;1.40;;
39888;SDS011;25563;50.844;4.308;2023-06-26T12:19:00;3.28;;;1.17;;
39888;SDS011;25563;50.844;4.308;2023-06-26T12:24:06;4.07;;;1.02;;
39888;SDS011;25563;50.844;4.308;2023-06-26T12:26:33;1.90;;;1.00;;
39888;SDS011;25563;50.844;4.308;2023-06-26T12:31:31;4.38;;;0.90;;
39888;SDS011;25563;50.844;4.308;2023-06-26T12:33:58;3.53;;;0.98;;
39888;SDS011;25563;50.844;4.308;2023-06-26T12:36:27;2.15;;;0.90;;
39888;SDS011;25563;50.844;4.308;2023-06-26T12:38:53;1.83;;;0.98;;
39888;SDS011;25563;50.844;4.308;2023-06-26T12:41:20;2.40;;;1.00;;
39888;SDS011;25563;50.844;4.308;2023-06-26T12:43:49;3.60;;;1.20;;
39888;SDS011;25563;50.844;4.308;2023-06-26T12:46:20;4.05;;;1.48;;
39888;SDS011;25563;50.844;4.308;2023-06-26T12:49:00;4.45;;;1.13;;
39888;SDS011;25563;50.844;4.308;2023-06-26T12:51:27;3.17;;;0.95;;
39888;SDS011;25563;50.844;4.308;2023-06-26T12:53:52;2.53;;;1.00;;
39888;SDS011;25563;50.844;4.308;2023-06-26T12:56:18;4.20;;;1.20;;
39888;SDS011;25563;50.844;4.308;2023-06-26T12:58:45;9.65;;;2.28;;
39888;SDS011;25563;50.844;4.308;2023-06-26T13:01:10;4.53;;;0.90;;
39888;SDS011;25563;50.844;4.308;2023-06-26T13:03:41;3.55;;;1.55;;
39888;SDS011;25563;50.844;4.308;2023-06-26T13:06:06;5.22;;;1.23;;
39888;SDS011;25563;50.844;4.308;2023-06-26T13:08:35;2.33;;;1.13;;
39888;SDS011;25563;50.844;4.308;2023-06-26T13:11:02;3.55;;;1.30;;
39888;SDS011;25563;50.844;4.308;2023-06-26T13:13:29;5.93;;;1.52;;
39888;SDS011;25563;50.844;4.308;2023-06-26T13:15:54;3.60;;;1.63;;
39888;SDS011;25563;50.844;4.308;2023-06-26T13:18:20;2.80;;;1.45;;
39888;SDS011;25563;50.844;4.308;2023-06-26T13:20:46;4.78;;;0.95;;
39888;SDS011;25563;50.844;4.308;2023-06-26T13:23:12;2.30;;;1.20;;
39888;SDS011;25563;50.844;4.308;2023-06-26T13:25:38;4.68;;;1.10;;
39888;SDS011;25563;50.844;4.308;2023-06-26T13:28:04;5.45;;;1.00;;
39888;SDS011;25563;50.844;4.308;2023-06-26T13:30:29;2.67;;;1.02;;
39888;SDS011;25563;50.844;4.308;2023-06-26T13:32:56;3.58;;;1.08;;
39888;SDS011;25563;50.844;4.308;2023-06-26T13:35:21;4.53;;;1.10;;
39888;SDS011;25563;50.844;4.308;2023-06-26T13:37:48;3.63;;;1.17;;
39888;SDS011;25563;50.844;4.308;2023-06-26T13:40:14;2.42;;;1.00;;
39888;SDS011;25563;50.844;4.308;2023-06-26T13:42:39;6.10;;;1.08;;
39888;SDS011;25563;50.844;4.308;2023-06-26T13:45:07;6.95;;;1.20;;
39888;SDS011;25563;50.844;4.308;2023-06-26T13:47:33;1.55;;;0.90;;
39888;SDS011;25563;50.844;4.308;2023-06-26T13:50:03;1.95;;;0.80;;
39888;SDS011;25563;50.844;4.308;2023-06-26T13:52:29;3.33;;;1.20;;
39888;SDS011;25563;50.844;4.308;2023-06-26T13:54:55;2.20;;;1.08;;
39888;SDS011;25563;50.844;4.308;2023-06-26T13:57:20;2.10;;;0.90;;
39888;SDS011;25563;50.844;4.308;2023-06-26T13:59:47;3.05;;;1.00;;
39888;SDS011;25563;50.844;4.308;2023-06-26T14:02:13;2.42;;;0.70;;
39888;SDS011;25563;50.844;4.308;2023-06-26T14:04:39;5.35;;;1.20;;
39888;SDS011;25563;50.844;4.308;2023-06-26T14:07:05;11.27;;;0.98;;
39888;SDS011;25563;50.844;4.308;2023-06-26T14:09:32;6.38;;;1.00;;
39888;SDS011;25563;50.844;4.308;2023-06-26T14:11:58;6.05;;;0.93;;
39888;SDS011;25563;50.844;4.308;2023-06-26T14:14:25;4.10;;;0.90;;
39888;SDS011;25563;50.844;4.308;2023-06-26T14:16:53;5.25;;;1.00;;
39888;SDS011;25563;50.844;4.308;2023-06-26T14:19:21;1.48;;;0.63;;
39888;SDS011;25563;50.844;4.308;2023-06-26T14:21:49;1.40;;;1.05;;
39888;SDS011;25563;50.844;4.308;2023-06-26T14:24:15;1.88;;;1.02;;
39888;SDS011;25563;50.844;4.308;2023-06-26T14:26:41;6.03;;;1.10;;
39888;SDS011;25563;50.844;4.308;2023-06-26T14:29:07;4.22;;;1.00;;
39888;SDS011;25563;50.844;4.308;2023-06-26T14:31:32;2.42;;;0.73;;
39888;SDS011;25563;50.844;4.308;2023-06-26T14:33:58;2.45;;;1.05;;
39888;SDS011;25563;50.844;4.308;2023-06-26T14:36:24;2.03;;;0.80;;
39888;SDS011;25563;50.844;4.308;2023-06-26T14:38:51;2.72;;;0.80;;
39888;SDS011;25563;50.844;4.308;2023-06-26T14:41:17;4.65;;;1.10;;
39888;SDS011;25563;50.844;4.308;2023-06-26T14:43:46;3.87;;;1.37;;
39888;SDS011;25563;50.844;4.308;2023-06-26T14:46:11;6.80;;;1.65;;
39888;SDS011;25563;50.844;4.308;2023-06-26T14:48:37;2.72;;;1.67;;
39888;SDS011;25563;50.844;4.308;2023-06-26T14:51:08;3.25;;;1.30;;
39888;SDS011;25563;50.844;4.308;2023-06-26T14:53:34;1.98;;;1.33;;
39888;SDS011;25563;50.844;4.308;2023-06-26T14:56:02;1.75;;;0.73;;
39888;SDS011;25563;50.844;4.308;2023-06-26T14:58:33;1.90;;;1.00;;
39888;SDS011;25563;50.844;4.308;2023-06-26T15:00:59;4.53;;;1.08;;
39888;SDS011;25563;50.844;4.308;2023-06-26T15:03:27;3.28;;;1.20;;
39888;SDS011;25563;50.844;4.308;2023-06-26T15:05:53;4.75;;;1.27;;
39888;SDS011;25563;50.844;4.308;2023-06-26T15:08:19;3.80;;;1.00;;
39888;SDS011;25563;50.844;4.308;2023-06-26T15:10:47;5.03;;;1.45;;
39888;SDS011;25563;50.844;4.308;2023-06-26T15:13:16;3.72;;;1.25;;